sensor_id;sensor_type;location;lat;lon;timestamp;P1;durP1;ratioP1;P2;durP2;ratioP2
56141;SDS011;42018;48.588;10.836;2024-02-28T00:02:43;23.45;;;15.90;;
56141;SDS011;42018;48.588;10.836;2024-02-28T00:05:28;25.17;;;15.68;;
56141;SDS011;42018;48.588;10.836;2024-02-28T00:08:14;21.23;;;14.85;;
56141;SDS011;42018;48.588;10.836;2024-02-28T00:10:59;25.48;;;16.27;;
56141;SDS011;42018;48.588;10.836;2024-02-28T00:13:45;26.35;;;17.23;;
56141;SDS011;42018;48.588;10.836;2024-02-28T00:16:30;22.30;;;14.23;;
56141;SDS011;42018;48.588;10.836;2024-02-28T00:19:16;24.50;;;16.25;;
56141;SDS011;42018;48.588;10.836;2024-02-28T00:22:03;24.55;;;16.13;;
56141;SDS011;42018;48.588;10.836;2024-02-28T00:24:49;22.58;;;15.07;;
56141;SDS011;42018;48.588;10.836;2024-02-28T00:27:34;26.23;;;16.85;;
56141;SDS011;42018;48.588;10.836;2024-02-28T00:30:20;27.65;;;17.40;;
56141;SDS011;42018;48.588;10.836;2024-02-28T00:33:05;26.13;;;17.63;;
56141;SDS011;42018;48.588;10.836;2024-02-28T00:35:51;26.80;;;17.00;;
56141;SDS011;42018;48.588;10.836;2024-02-28T00:38:38;26.50;;;17.20;;
56141;SDS011;42018;48.588;10.836;2024-02-28T00:41:24;25.73;;;17.95;;
56141;SDS011;42018;48.588;10.836;2024-02-28T00:44:09;26.65;;;17.58;;
56141;SDS011;42018;48.588;10.836;2024-02-28T00:46:55;26.08;;;17.08;;
56141;SDS011;42018;48.588;10.836;2024-02-28T00:49:41;25.90;;;16.98;;
56141;SDS011;42018;48.588;10.836;2024-02-28T00:52:27;28.00;;;17.95;;
56141;SDS011;42018;48.588;10.836;2024-02-28T00:55:12;25.83;;;16.77;;
56141;SDS011;42018;48.588;10.836;2024-02-28T00:57:58;26.58;;;16.73;;
56141;SDS011;42018;48.588;10.836;2024-02-28T01:00:43;23.98;;;16.23;;
56141;SDS011;42018;48.588;10.836;2024-02-28T01:03:29;27.85;;;16.60;;
56141;SDS011;42018;48.588;10.836;2024-02-28T01:06:14;27.83;;;17.13;;
56141;SDS011;42018;48.588;10.836;2024-02-28T01:09:01;25.85;;;16.23;;
56141;SDS011;42018;48.588;10.836;2024-02-28T01:11:47;26.55;;;17.25;;
56141;SDS011;42018;48.588;10.836;2024-02-28T01:14:33;25.75;;;17.38;;
56141;SDS011;42018;48.588;10.836;2024-02-28T01:17:18;30.52;;;17.77;;
56141;SDS011;42018;48.588;10.836;2024-02-28T01:20:04;26.52;;;15.55;;
56141;SDS011;42018;48.588;10.836;2024-02-28T01:22:53;26.77;;;17.85;;
56141;SDS011;42018;48.588;10.836;2024-02-28T01:25:38;24.00;;;16.02;;
56141;SDS011;42018;48.588;10.836;2024-02-28T01:28:24;29.10;;;17.70;;
56141;SDS011;42018;48.588;10.836;2024-02-28T01:31:09;24.95;;;16.63;;
56141;SDS011;42018;48.588;10.836;2024-02-28T01:33:55;29.45;;;17.27;;
56141;SDS011;42018;48.588;10.836;2024-02-28T01:36:40;28.13;;;17.70;;
56141;SDS011;42018;48.588;10.836;2024-02-28T01:39:26;27.90;;;17.10;;
56141;SDS011;42018;48.588;10.836;2024-02-28T01:42:11;27.48;;;16.63;;
56141;SDS011;42018;48.588;10.836;2024-02-28T01:44:58;25.65;;;15.90;;
56141;SDS011;42018;48.588;10.836;2024-02-28T01:47:44;22.35;;;14.30;;
56141;SDS011;42018;48.588;10.836;2024-02-28T01:50:31;25.90;;;16.95;;
56141;SDS011;42018;48.588;10.836;2024-02-28T01:53:17;29.95;;;17.50;;
56141;SDS011;42018;48.588;10.836;2024-02-28T01:56:02;27.98;;;17.45;;
56141;SDS011;42018;48.588;10.836;2024-02-28T01:58:49;25.67;;;17.30;;
56141;SDS011;42018;48.588;10.836;2024-02-28T02:01:35;30.17;;;19.40;;
56141;SDS011;42018;48.588;10.836;2024-02-28T02:04:21;26.75;;;18.08;;
56141;SDS011;42018;48.588;10.836;2024-02-28T02:07:07;27.52;;;16.13;;
56141;SDS011;42018;48.588;10.836;2024-02-28T02:09:53;25.77;;;16.50;;
56141;SDS011;42018;48.588;10.836;2024-02-28T02:12:39;27.48;;;16.67;;
56141;SDS011;42018;48.588;10.836;2024-02-28T02:15:25;24.67;;;16.40;;
56141;SDS011;42018;48.588;10.836;2024-02-28T02:18:10;30.75;;;19.00;;
56141;SDS011;42018;48.588;10.836;2024-02-28T02:20:59;30.13;;;19.25;;
56141;SDS011;42018;48.588;10.836;2024-02-28T02:23:49;29.65;;;18.05;;
56141;SDS011;42018;48.588;10.836;2024-02-28T02:26:35;26.98;;;16.85;;
56141;SDS011;42018;48.588;10.836;2024-02-28T02:29:21;29.70;;;18.23;;
56141;SDS011;42018;48.588;10.836;2024-02-28T02:32:07;26.10;;;16.73;;
56141;SDS011;42018;48.588;10.836;2024-02-28T02:34:52;28.75;;;16.90;;
56141;SDS011;42018;48.588;10.836;2024-02-28T02:37:38;31.45;;;18.58;;
56141;SDS011;42018;48.588;10.836;2024-02-28T02:40:28;27.67;;;17.30;;
56141;SDS011;42018;48.588;10.836;2024-02-28T02:43:13;28.70;;;17.20;;
56141;SDS011;42018;48.588;10.836;2024-02-28T02:45:59;27.20;;;16.38;;
56141;SDS011;42018;48.588;10.836;2024-02-28T02:48:45;26.75;;;16.67;;
56141;SDS011;42018;48.588;10.836;2024-02-28T02:51:30;32.03;;;19.40;;
56141;SDS011;42018;48.588;10.836;2024-02-28T02:54:16;31.90;;;20.73;;
56141;SDS011;42018;48.588;10.836;2024-02-28T02:57:01;29.60;;;18.63;;
56141;SDS011;42018;48.588;10.836;2024-02-28T02:59:47;31.63;;;19.08;;
56141;SDS011;42018;48.588;10.836;2024-02-28T03:02:32;32.53;;;20.65;;
56141;SDS011;42018;48.588;10.836;2024-02-28T03:05:18;32.65;;;18.67;;
56141;SDS011;42018;48.588;10.836;2024-02-28T03:08:03;30.17;;;18.13;;
56141;SDS011;42018;48.588;10.836;2024-02-28T03:10:49;31.35;;;19.63;;
56141;SDS011;42018;48.588;10.836;2024-02-28T03:13:34;32.65;;;19.90;;
56141;SDS011;42018;48.588;10.836;2024-02-28T03:16:20;31.95;;;19.45;;
56141;SDS011;42018;48.588;10.836;2024-02-28T03:19:05;34.17;;;20.85;;
56141;SDS011;42018;48.588;10.836;2024-02-28T03:21:51;29.48;;;18.20;;
56141;SDS011;42018;48.588;10.836;2024-02-28T03:24:36;33.72;;;20.80;;
56141;SDS011;42018;48.588;10.836;2024-02-28T03:27:22;31.95;;;19.23;;
56141;SDS011;42018;48.588;10.836;2024-02-28T03:30:08;32.25;;;19.13;;
56141;SDS011;42018;48.588;10.836;2024-02-28T03:32:53;29.30;;;17.73;;
56141;SDS011;42018;48.588;10.836;2024-02-28T03:35:39;33.10;;;19.98;;
56141;SDS011;42018;48.588;10.836;2024-02-28T03:38:24;30.08;;;18.17;;
56141;SDS011;42018;48.588;10.836;2024-02-28T03:41:10;34.33;;;19.38;;
56141;SDS011;42018;48.588;10.836;2024-02-28T03:43:56;31.33;;;19.45;;
56141;SDS011;42018;48.588;10.836;2024-02-28T03:46:41;34.80;;;19.83;;
56141;SDS011;42018;48.588;10.836;2024-02-28T03:49:27;33.50;;;20.75;;
56141;SDS011;42018;48.588;10.836;2024-02-28T03:52:12;34.45;;;20.67;;
56141;SDS011;42018;48.588;10.836;2024-02-28T03:54:58;36.03;;;20.77;;
56141;SDS011;42018;48.588;10.836;2024-02-28T03:57:46;34.67;;;21.20;;
56141;SDS011;42018;48.588;10.836;2024-02-28T04:00:32;36.08;;;20.52;;
56141;SDS011;42018;48.588;10.836;2024-02-28T04:03:18;34.83;;;19.85;;
56141;SDS011;42018;48.588;10.836;2024-02-28T04:06:03;33.75;;;20.20;;
56141;SDS011;42018;48.588;10.836;2024-02-28T04:08:49;36.75;;;21.35;;
56141;SDS011;42018;48.588;10.836;2024-02-28T04:11:36;37.17;;;20.98;;
56141;SDS011;42018;48.588;10.836;2024-02-28T04:14:22;35.90;;;19.63;;
56141;SDS011;42018;48.588;10.836;2024-02-28T04:17:07;35.78;;;21.30;;
56141;SDS011;42018;48.588;10.836;2024-02-28T04:19:53;35.53;;;20.00;;
56141;SDS011;42018;48.588;10.836;2024-02-28T04:22:38;39.40;;;21.58;;
56141;SDS011;42018;48.588;10.836;2024-02-28T04:25:24;38.45;;;22.33;;
56141;SDS011;42018;48.588;10.836;2024-02-28T04:28:10;35.28;;;20.55;;
56141;SDS011;42018;48.588;10.836;2024-02-28T04:30:55;37.45;;;19.80;;
56141;SDS011;42018;48.588;10.836;2024-02-28T04:33:41;34.78;;;21.10;;
56141;SDS011;42018;48.588;10.836;2024-02-28T04:36:26;39.78;;;20.17;;
56141;SDS011;42018;48.588;10.836;2024-02-28T04:39:12;36.38;;;20.23;;
56141;SDS011;42018;48.588;10.836;2024-02-28T04:41:57;37.00;;;20.60;;
56141;SDS011;42018;48.588;10.836;2024-02-28T04:44:43;36.15;;;20.05;;
56141;SDS011;42018;48.588;10.836;2024-02-28T04:47:28;34.90;;;18.40;;
56141;SDS011;42018;48.588;10.836;2024-02-28T04:50:14;37.03;;;19.67;;
56141;SDS011;42018;48.588;10.836;2024-02-28T04:53:00;37.03;;;20.73;;
56141;SDS011;42018;48.588;10.836;2024-02-28T04:55:45;33.72;;;19.33;;
56141;SDS011;42018;48.588;10.836;2024-02-28T04:58:31;32.42;;;18.70;;
56141;SDS011;42018;48.588;10.836;2024-02-28T05:01:16;31.00;;;18.55;;
56141;SDS011;42018;48.588;10.836;2024-02-28T05:04:02;35.17;;;19.98;;
56141;SDS011;42018;48.588;10.836;2024-02-28T05:06:47;39.65;;;21.48;;
56141;SDS011;42018;48.588;10.836;2024-02-28T05:09:33;32.75;;;18.42;;
56141;SDS011;42018;48.588;10.836;2024-02-28T05:12:19;32.35;;;19.48;;
56141;SDS011;42018;48.588;10.836;2024-02-28T05:15:04;34.97;;;19.85;;
56141;SDS011;42018;48.588;10.836;2024-02-28T05:17:51;38.25;;;19.80;;
56141;SDS011;42018;48.588;10.836;2024-02-28T05:20:37;37.28;;;19.75;;
56141;SDS011;42018;48.588;10.836;2024-02-28T05:23:23;32.95;;;19.13;;
56141;SDS011;42018;48.588;10.836;2024-02-28T05:26:08;34.30;;;19.40;;
56141;SDS011;42018;48.588;10.836;2024-02-28T05:28:54;35.83;;;19.65;;
56141;SDS011;42018;48.588;10.836;2024-02-28T05:31:39;38.50;;;20.85;;
56141;SDS011;42018;48.588;10.836;2024-02-28T05:34:25;36.20;;;20.30;;
56141;SDS011;42018;48.588;10.836;2024-02-28T05:37:10;37.30;;;20.38;;
56141;SDS011;42018;48.588;10.836;2024-02-28T05:39:56;36.78;;;20.77;;
56141;SDS011;42018;48.588;10.836;2024-02-28T05:42:42;36.72;;;20.02;;
56141;SDS011;42018;48.588;10.836;2024-02-28T05:45:28;35.75;;;20.10;;
56141;SDS011;42018;48.588;10.836;2024-02-28T05:48:13;37.65;;;20.40;;
56141;SDS011;42018;48.588;10.836;2024-02-28T05:51:00;35.30;;;19.77;;
56141;SDS011;42018;48.588;10.836;2024-02-28T05:53:46;37.17;;;19.25;;
56141;SDS011;42018;48.588;10.836;2024-02-28T05:56:31;36.08;;;19.60;;
56141;SDS011;42018;48.588;10.836;2024-02-28T05:59:17;37.88;;;20.65;;
56141;SDS011;42018;48.588;10.836;2024-02-28T06:02:02;36.97;;;20.38;;
56141;SDS011;42018;48.588;10.836;2024-02-28T06:04:48;36.08;;;20.77;;
56141;SDS011;42018;48.588;10.836;2024-02-28T06:07:33;38.65;;;21.27;;
56141;SDS011;42018;48.588;10.836;2024-02-28T06:10:19;38.20;;;20.45;;
56141;SDS011;42018;48.588;10.836;2024-02-28T06:13:06;39.15;;;20.65;;
56141;SDS011;42018;48.588;10.836;2024-02-28T06:15:51;39.63;;;21.45;;
56141;SDS011;42018;48.588;10.836;2024-02-28T06:18:37;37.55;;;19.75;;
56141;SDS011;42018;48.588;10.836;2024-02-28T06:21:22;35.38;;;19.45;;
56141;SDS011;42018;48.588;10.836;2024-02-28T06:24:08;36.95;;;19.98;;
56141;SDS011;42018;48.588;10.836;2024-02-28T06:26:53;35.15;;;19.08;;
56141;SDS011;42018;48.588;10.836;2024-02-28T06:29:39;36.17;;;19.63;;
56141;SDS011;42018;48.588;10.836;2024-02-28T06:32:25;39.90;;;19.92;;
56141;SDS011;42018;48.588;10.836;2024-02-28T06:35:11;39.40;;;20.88;;
56141;SDS011;42018;48.588;10.836;2024-02-28T06:37:56;38.33;;;20.67;;
56141;SDS011;42018;48.588;10.836;2024-02-28T06:40:42;36.80;;;19.80;;
56141;SDS011;42018;48.588;10.836;2024-02-28T06:43:27;34.17;;;18.65;;
56141;SDS011;42018;48.588;10.836;2024-02-28T06:46:13;40.13;;;21.08;;
56141;SDS011;42018;48.588;10.836;2024-02-28T06:48:58;39.45;;;20.08;;
56141;SDS011;42018;48.588;10.836;2024-02-28T06:51:44;35.00;;;19.25;;
56141;SDS011;42018;48.588;10.836;2024-02-28T06:54:30;38.97;;;21.05;;
56141;SDS011;42018;48.588;10.836;2024-02-28T06:57:16;38.35;;;20.33;;
56141;SDS011;42018;48.588;10.836;2024-02-28T07:00:03;41.88;;;22.00;;
56141;SDS011;42018;48.588;10.836;2024-02-28T07:02:50;40.40;;;21.23;;
56141;SDS011;42018;48.588;10.836;2024-02-28T07:05:36;42.78;;;22.02;;
56141;SDS011;42018;48.588;10.836;2024-02-28T07:08:21;40.72;;;19.13;;
56141;SDS011;42018;48.588;10.836;2024-02-28T07:11:13;40.78;;;21.20;;
56141;SDS011;42018;48.588;10.836;2024-02-28T07:14:00;37.42;;;20.73;;
56141;SDS011;42018;48.588;10.836;2024-02-28T07:16:47;42.15;;;21.73;;
56141;SDS011;42018;48.588;10.836;2024-02-28T07:19:32;36.35;;;19.63;;
56141;SDS011;42018;48.588;10.836;2024-02-28T07:22:18;40.55;;;21.30;;
56141;SDS011;42018;48.588;10.836;2024-02-28T07:25:04;40.63;;;21.60;;
56141;SDS011;42018;48.588;10.836;2024-02-28T07:27:50;44.38;;;23.05;;
56141;SDS011;42018;48.588;10.836;2024-02-28T07:30:36;47.60;;;24.85;;
56141;SDS011;42018;48.588;10.836;2024-02-28T07:33:21;40.97;;;21.83;;
56141;SDS011;42018;48.588;10.836;2024-02-28T07:36:07;39.80;;;21.23;;
56141;SDS011;42018;48.588;10.836;2024-02-28T07:38:53;43.83;;;22.25;;
56141;SDS011;42018;48.588;10.836;2024-02-28T07:41:39;41.03;;;21.95;;
56141;SDS011;42018;48.588;10.836;2024-02-28T07:44:26;40.05;;;20.30;;
56141;SDS011;42018;48.588;10.836;2024-02-28T07:47:15;44.20;;;22.40;;
56141;SDS011;42018;48.588;10.836;2024-02-28T07:50:01;38.97;;;21.20;;
56141;SDS011;42018;48.588;10.836;2024-02-28T07:52:46;38.88;;;19.73;;
56141;SDS011;42018;48.588;10.836;2024-02-28T07:55:32;35.63;;;17.88;;
56141;SDS011;42018;48.588;10.836;2024-02-28T07:58:18;35.70;;;20.05;;
56141;SDS011;42018;48.588;10.836;2024-02-28T08:01:04;39.85;;;20.42;;
56141;SDS011;42018;48.588;10.836;2024-02-28T08:03:49;39.22;;;19.05;;
56141;SDS011;42018;48.588;10.836;2024-02-28T08:06:35;43.47;;;20.33;;
56141;SDS011;42018;48.588;10.836;2024-02-28T08:09:20;37.00;;;19.65;;
56141;SDS011;42018;48.588;10.836;2024-02-28T08:12:06;44.15;;;20.50;;
56141;SDS011;42018;48.588;10.836;2024-02-28T08:14:52;40.92;;;21.23;;
56141;SDS011;42018;48.588;10.836;2024-02-28T08:17:37;42.53;;;20.48;;
56141;SDS011;42018;48.588;10.836;2024-02-28T08:20:23;38.35;;;19.35;;
56141;SDS011;42018;48.588;10.836;2024-02-28T08:23:08;40.15;;;21.00;;
56141;SDS011;42018;48.588;10.836;2024-02-28T08:25:54;38.13;;;20.35;;
56141;SDS011;42018;48.588;10.836;2024-02-28T08:28:39;38.83;;;19.10;;
56141;SDS011;42018;48.588;10.836;2024-02-28T08:31:25;44.83;;;21.33;;
56141;SDS011;42018;48.588;10.836;2024-02-28T08:34:10;46.28;;;22.58;;
56141;SDS011;42018;48.588;10.836;2024-02-28T08:36:56;45.22;;;20.98;;
56141;SDS011;42018;48.588;10.836;2024-02-28T08:39:41;42.85;;;21.17;;
56141;SDS011;42018;48.588;10.836;2024-02-28T08:42:26;39.58;;;20.70;;
56141;SDS011;42018;48.588;10.836;2024-02-28T08:45:12;41.85;;;19.85;;
56141;SDS011;42018;48.588;10.836;2024-02-28T08:47:57;45.30;;;20.10;;
56141;SDS011;42018;48.588;10.836;2024-02-28T08:50:46;39.83;;;19.58;;
56141;SDS011;42018;48.588;10.836;2024-02-28T08:53:31;42.40;;;20.20;;
56141;SDS011;42018;48.588;10.836;2024-02-28T08:56:17;41.10;;;20.77;;
56141;SDS011;42018;48.588;10.836;2024-02-28T08:59:02;43.95;;;20.52;;
56141;SDS011;42018;48.588;10.836;2024-02-28T09:01:48;40.45;;;18.92;;
56141;SDS011;42018;48.588;10.836;2024-02-28T09:04:34;41.63;;;21.27;;
56141;SDS011;42018;48.588;10.836;2024-02-28T09:07:20;44.55;;;20.58;;
56141;SDS011;42018;48.588;10.836;2024-02-28T09:10:05;43.47;;;21.48;;
56141;SDS011;42018;48.588;10.836;2024-02-28T09:12:51;40.00;;;19.98;;
56141;SDS011;42018;48.588;10.836;2024-02-28T09:15:37;37.00;;;20.35;;
56141;SDS011;42018;48.588;10.836;2024-02-28T09:18:23;40.53;;;20.63;;
56141;SDS011;42018;48.588;10.836;2024-02-28T09:21:09;43.10;;;18.77;;
56141;SDS011;42018;48.588;10.836;2024-02-28T09:23:54;42.70;;;20.58;;
56141;SDS011;42018;48.588;10.836;2024-02-28T09:26:40;45.17;;;22.10;;
56141;SDS011;42018;48.588;10.836;2024-02-28T09:29:25;40.13;;;18.98;;
56141;SDS011;42018;48.588;10.836;2024-02-28T09:32:11;36.80;;;19.10;;
56141;SDS011;42018;48.588;10.836;2024-02-28T09:34:56;37.90;;;17.60;;
56141;SDS011;42018;48.588;10.836;2024-02-28T09:37:42;37.05;;;18.30;;
56141;SDS011;42018;48.588;10.836;2024-02-28T09:40:27;40.42;;;19.85;;
56141;SDS011;42018;48.588;10.836;2024-02-28T09:43:21;30.70;;;16.63;;
56141;SDS011;42018;48.588;10.836;2024-02-28T09:46:13;33.90;;;18.63;;
56141;SDS011;42018;48.588;10.836;2024-02-28T09:49:03;38.70;;;19.30;;
56141;SDS011;42018;48.588;10.836;2024-02-28T09:51:50;36.53;;;18.80;;
56141;SDS011;42018;48.588;10.836;2024-02-28T09:54:36;36.53;;;18.17;;
56141;SDS011;42018;48.588;10.836;2024-02-28T09:57:22;31.60;;;18.02;;
56141;SDS011;42018;48.588;10.836;2024-02-28T10:00:13;35.50;;;19.20;;
56141;SDS011;42018;48.588;10.836;2024-02-28T10:03:01;36.70;;;18.83;;
56141;SDS011;42018;48.588;10.836;2024-02-28T10:05:48;37.38;;;19.98;;
56141;SDS011;42018;48.588;10.836;2024-02-28T10:08:33;36.17;;;20.33;;
56141;SDS011;42018;48.588;10.836;2024-02-28T10:11:20;36.47;;;18.95;;
56141;SDS011;42018;48.588;10.836;2024-02-28T10:14:07;39.13;;;19.85;;
56141;SDS011;42018;48.588;10.836;2024-02-28T10:16:52;36.55;;;19.25;;
56141;SDS011;42018;48.588;10.836;2024-02-28T10:19:38;33.55;;;18.45;;
56141;SDS011;42018;48.588;10.836;2024-02-28T10:22:24;33.97;;;19.52;;
56141;SDS011;42018;48.588;10.836;2024-02-28T10:25:10;34.25;;;18.33;;
56141;SDS011;42018;48.588;10.836;2024-02-28T10:27:59;35.83;;;19.63;;
56141;SDS011;42018;48.588;10.836;2024-02-28T10:30:46;34.92;;;18.67;;
56141;SDS011;42018;48.588;10.836;2024-02-28T10:33:31;35.30;;;18.92;;
56141;SDS011;42018;48.588;10.836;2024-02-28T10:36:18;37.28;;;20.02;;
56141;SDS011;42018;48.588;10.836;2024-02-28T10:39:04;32.38;;;18.60;;
56141;SDS011;42018;48.588;10.836;2024-02-28T10:41:50;32.95;;;17.48;;
56141;SDS011;42018;48.588;10.836;2024-02-28T10:44:36;33.17;;;17.95;;
56141;SDS011;42018;48.588;10.836;2024-02-28T10:47:24;34.78;;;20.08;;
56141;SDS011;42018;48.588;10.836;2024-02-28T10:50:10;35.70;;;20.48;;
56141;SDS011;42018;48.588;10.836;2024-02-28T10:52:58;37.53;;;18.88;;
56141;SDS011;42018;48.588;10.836;2024-02-28T10:55:48;35.80;;;19.52;;
56141;SDS011;42018;48.588;10.836;2024-02-28T10:58:34;31.95;;;18.05;;
56141;SDS011;42018;48.588;10.836;2024-02-28T11:01:23;35.17;;;17.70;;
56141;SDS011;42018;48.588;10.836;2024-02-28T11:04:10;34.58;;;19.70;;
56141;SDS011;42018;48.588;10.836;2024-02-28T11:06:57;34.83;;;19.77;;
56141;SDS011;42018;48.588;10.836;2024-02-28T11:09:42;37.22;;;19.92;;
56141;SDS011;42018;48.588;10.836;2024-02-28T11:12:28;33.47;;;18.98;;
56141;SDS011;42018;48.588;10.836;2024-02-28T11:15:17;35.83;;;17.88;;
56141;SDS011;42018;48.588;10.836;2024-02-28T11:18:09;33.60;;;18.42;;
56141;SDS011;42018;48.588;10.836;2024-02-28T11:20:55;32.63;;;18.90;;
56141;SDS011;42018;48.588;10.836;2024-02-28T11:23:41;35.83;;;19.17;;
56141;SDS011;42018;48.588;10.836;2024-02-28T11:26:32;33.95;;;17.10;;
56141;SDS011;42018;48.588;10.836;2024-02-28T11:29:27;33.75;;;18.45;;
56141;SDS011;42018;48.588;10.836;2024-02-28T11:32:14;34.85;;;18.00;;
56141;SDS011;42018;48.588;10.836;2024-02-28T11:35:01;28.20;;;16.15;;
56141;SDS011;42018;48.588;10.836;2024-02-28T11:37:46;35.47;;;18.77;;
56141;SDS011;42018;48.588;10.836;2024-02-28T11:40:32;36.55;;;19.80;;
56141;SDS011;42018;48.588;10.836;2024-02-28T11:43:18;38.80;;;19.58;;
56141;SDS011;42018;48.588;10.836;2024-02-28T11:46:10;37.38;;;19.23;;
56141;SDS011;42018;48.588;10.836;2024-02-28T11:48:56;38.50;;;20.85;;
56141;SDS011;42018;48.588;10.836;2024-02-28T11:51:42;36.78;;;19.67;;
56141;SDS011;42018;48.588;10.836;2024-02-28T11:54:31;36.40;;;18.73;;
56141;SDS011;42018;48.588;10.836;2024-02-28T11:57:16;35.22;;;19.30;;
56141;SDS011;42018;48.588;10.836;2024-02-28T12:00:06;33.75;;;17.65;;
56141;SDS011;42018;48.588;10.836;2024-02-28T12:03:03;34.75;;;18.15;;
56141;SDS011;42018;48.588;10.836;2024-02-28T12:05:50;34.10;;;17.75;;
56141;SDS011;42018;48.588;10.836;2024-02-28T12:08:37;32.70;;;17.30;;
56141;SDS011;42018;48.588;10.836;2024-02-28T12:11:24;31.48;;;17.65;;
56141;SDS011;42018;48.588;10.836;2024-02-28T12:14:10;31.10;;;16.98;;
56141;SDS011;42018;48.588;10.836;2024-02-28T12:16:57;33.83;;;18.42;;
56141;SDS011;42018;48.588;10.836;2024-02-28T12:19:43;34.15;;;18.95;;
56141;SDS011;42018;48.588;10.836;2024-02-28T12:22:28;35.17;;;19.02;;
56141;SDS011;42018;48.588;10.836;2024-02-28T12:25:14;32.53;;;18.33;;
56141;SDS011;42018;48.588;10.836;2024-02-28T12:27:59;34.22;;;19.00;;
56141;SDS011;42018;48.588;10.836;2024-02-28T12:30:46;35.20;;;20.67;;
56141;SDS011;42018;48.588;10.836;2024-02-28T12:33:31;37.42;;;20.55;;
56141;SDS011;42018;48.588;10.836;2024-02-28T12:36:17;37.40;;;19.38;;
56141;SDS011;42018;48.588;10.836;2024-02-28T12:39:03;36.15;;;20.45;;
56141;SDS011;42018;48.588;10.836;2024-02-28T12:41:51;31.15;;;16.88;;
56141;SDS011;42018;48.588;10.836;2024-02-28T12:44:36;30.17;;;17.55;;
56141;SDS011;42018;48.588;10.836;2024-02-28T12:47:23;30.48;;;17.80;;
56141;SDS011;42018;48.588;10.836;2024-02-28T12:50:09;28.67;;;16.73;;
56141;SDS011;42018;48.588;10.836;2024-02-28T12:52:56;34.38;;;18.80;;
56141;SDS011;42018;48.588;10.836;2024-02-28T12:55:41;35.03;;;19.25;;
56141;SDS011;42018;48.588;10.836;2024-02-28T12:58:27;34.22;;;19.52;;
56141;SDS011;42018;48.588;10.836;2024-02-28T13:01:12;38.53;;;20.50;;
56141;SDS011;42018;48.588;10.836;2024-02-28T13:03:58;36.70;;;19.50;;
56141;SDS011;42018;48.588;10.836;2024-02-28T13:06:43;33.30;;;18.67;;
56141;SDS011;42018;48.588;10.836;2024-02-28T13:09:29;34.55;;;20.60;;
56141;SDS011;42018;48.588;10.836;2024-02-28T13:12:14;31.42;;;18.35;;
56141;SDS011;42018;48.588;10.836;2024-02-28T13:15:00;32.00;;;18.77;;
56141;SDS011;42018;48.588;10.836;2024-02-28T13:17:46;29.75;;;17.70;;
56141;SDS011;42018;48.588;10.836;2024-02-28T13:20:34;28.20;;;17.70;;
56141;SDS011;42018;48.588;10.836;2024-02-28T13:23:20;30.85;;;17.92;;
56141;SDS011;42018;48.588;10.836;2024-02-28T13:26:06;30.90;;;18.33;;
56141;SDS011;42018;48.588;10.836;2024-02-28T13:28:52;31.35;;;18.65;;
56141;SDS011;42018;48.588;10.836;2024-02-28T13:31:37;30.55;;;18.50;;
56141;SDS011;42018;48.588;10.836;2024-02-28T13:34:23;29.35;;;16.77;;
56141;SDS011;42018;48.588;10.836;2024-02-28T13:37:08;31.15;;;19.70;;
56141;SDS011;42018;48.588;10.836;2024-02-28T13:39:54;27.15;;;17.38;;
56141;SDS011;42018;48.588;10.836;2024-02-28T13:42:41;32.03;;;18.38;;
56141;SDS011;42018;48.588;10.836;2024-02-28T13:45:27;32.85;;;19.40;;
56141;SDS011;42018;48.588;10.836;2024-02-28T13:48:16;31.48;;;18.85;;
56141;SDS011;42018;48.588;10.836;2024-02-28T13:51:02;30.00;;;17.35;;
56141;SDS011;42018;48.588;10.836;2024-02-28T13:53:49;32.70;;;19.90;;
56141;SDS011;42018;48.588;10.836;2024-02-28T13:56:37;33.55;;;21.05;;
56141;SDS011;42018;48.588;10.836;2024-02-28T13:59:23;30.65;;;19.50;;
56141;SDS011;42018;48.588;10.836;2024-02-28T14:02:08;27.42;;;18.45;;
56141;SDS011;42018;48.588;10.836;2024-02-28T14:04:55;29.45;;;19.50;;
56141;SDS011;42018;48.588;10.836;2024-02-28T14:07:41;28.08;;;18.30;;
56141;SDS011;42018;48.588;10.836;2024-02-28T14:10:26;30.35;;;19.85;;
56141;SDS011;42018;48.588;10.836;2024-02-28T14:13:12;27.92;;;20.60;;
56141;SDS011;42018;48.588;10.836;2024-02-28T14:15:57;26.10;;;16.30;;
56141;SDS011;42018;48.588;10.836;2024-02-28T14:18:43;25.58;;;18.92;;
56141;SDS011;42018;48.588;10.836;2024-02-28T14:21:28;27.30;;;18.23;;
56141;SDS011;42018;48.588;10.836;2024-02-28T14:24:14;27.80;;;18.58;;
56141;SDS011;42018;48.588;10.836;2024-02-28T14:27:03;24.83;;;19.83;;
56141;SDS011;42018;48.588;10.836;2024-02-28T14:29:48;25.35;;;16.85;;
56141;SDS011;42018;48.588;10.836;2024-02-28T14:32:37;26.08;;;19.65;;
56141;SDS011;42018;48.588;10.836;2024-02-28T14:35:23;23.20;;;15.52;;
56141;SDS011;42018;48.588;10.836;2024-02-28T14:38:09;28.42;;;20.60;;
56141;SDS011;42018;48.588;10.836;2024-02-28T14:40:55;24.75;;;15.88;;
56141;SDS011;42018;48.588;10.836;2024-02-28T14:43:41;23.02;;;17.23;;
56141;SDS011;42018;48.588;10.836;2024-02-28T14:46:26;27.25;;;17.17;;
56141;SDS011;42018;48.588;10.836;2024-02-28T14:49:12;27.65;;;17.17;;
56141;SDS011;42018;48.588;10.836;2024-02-28T14:51:57;27.55;;;18.48;;
56141;SDS011;42018;48.588;10.836;2024-02-28T14:54:44;27.83;;;18.60;;
56141;SDS011;42018;48.588;10.836;2024-02-28T14:57:32;26.60;;;15.30;;
56141;SDS011;42018;48.588;10.836;2024-02-28T15:00:18;26.80;;;16.83;;
56141;SDS011;42018;48.588;10.836;2024-02-28T15:03:04;30.50;;;18.65;;
56141;SDS011;42018;48.588;10.836;2024-02-28T15:05:50;28.30;;;16.80;;
56141;SDS011;42018;48.588;10.836;2024-02-28T15:08:35;25.38;;;15.57;;
56141;SDS011;42018;48.588;10.836;2024-02-28T15:11:21;30.92;;;17.55;;
56141;SDS011;42018;48.588;10.836;2024-02-28T15:14:06;26.05;;;16.33;;
56141;SDS011;42018;48.588;10.836;2024-02-28T15:16:52;28.80;;;17.92;;
56141;SDS011;42018;48.588;10.836;2024-02-28T15:19:38;31.08;;;18.15;;
56141;SDS011;42018;48.588;10.836;2024-02-28T15:22:23;31.55;;;18.38;;
56141;SDS011;42018;48.588;10.836;2024-02-28T15:25:09;31.08;;;18.02;;
56141;SDS011;42018;48.588;10.836;2024-02-28T15:27:56;32.75;;;19.55;;
56141;SDS011;42018;48.588;10.836;2024-02-28T15:30:41;31.25;;;19.35;;
56141;SDS011;42018;48.588;10.836;2024-02-28T15:33:27;33.53;;;19.27;;
56141;SDS011;42018;48.588;10.836;2024-02-28T15:36:13;30.90;;;19.50;;
56141;SDS011;42018;48.588;10.836;2024-02-28T15:38:58;28.27;;;17.23;;
56141;SDS011;42018;48.588;10.836;2024-02-28T15:41:44;28.38;;;17.65;;
56141;SDS011;42018;48.588;10.836;2024-02-28T15:44:30;31.00;;;16.98;;
56141;SDS011;42018;48.588;10.836;2024-02-28T15:47:15;30.33;;;18.88;;
56141;SDS011;42018;48.588;10.836;2024-02-28T15:50:02;30.33;;;17.13;;
56141;SDS011;42018;48.588;10.836;2024-02-28T15:52:50;31.48;;;16.67;;
56141;SDS011;42018;48.588;10.836;2024-02-28T15:55:35;26.38;;;15.57;;
56141;SDS011;42018;48.588;10.836;2024-02-28T15:58:21;27.92;;;16.55;;